sensor_id;sensor_type;location;lat;lon;timestamp;noise_LAeq;noise_LA_min;noise_LA_max;noise_LA01;noise_LA95
18377;Laerm;9315;52.624;13.544;2024-02-14T00:00:48;58.56;39.88;77.84;;
18377;Laerm;9315;52.624;13.544;2024-02-14T00:03:16;44.81;40.73;51.13;;
18377;Laerm;9315;52.624;13.544;2024-02-14T00:05:43;44.17;38.83;54.33;;
18377;Laerm;9315;52.624;13.544;2024-02-14T00:08:11;57.44;42.40;71.77;;
18377;Laerm;9315;52.624;13.544;2024-02-14T00:10:40;55.84;38.40;74.39;;
18377;Laerm;9315;52.624;13.544;2024-02-14T00:13:08;53.68;36.90;71.88;;
18377;Laerm;9315;52.624;13.544;2024-02-14T00:15:36;54.78;40.51;73.37;;
18377;Laerm;9315;52.624;13.544;2024-02-14T00:18:04;44.15;39.44;52.16;;
18377;Laerm;9315;52.624;13.544;2024-02-14T00:20:32;56.93;40.55;73.35;;
18377;Laerm;9315;52.624;13.544;2024-02-14T00:23:00;52.81;41.72;70.14;;
18377;Laerm;9315;52.624;13.544;2024-02-14T00:25:27;60.00;39.29;76.01;;
18377;Laerm;9315;52.624;13.544;2024-02-14T00:27:54;44.03;36.19;52.06;;
18377;Laerm;9315;52.624;13.544;2024-02-14T00:30:22;55.48;41.26;73.17;;
18377;Laerm;9315;52.624;13.544;2024-02-14T00:32:52;57.42;41.45;74.32;;
18377;Laerm;9315;52.624;13.544;2024-02-14T00:35:19;58.19;44.61;76.34;;
18377;Laerm;9315;52.624;13.544;2024-02-14T00:37:48;60.20;40.88;75.83;;
18377;Laerm;9315;52.624;13.544;2024-02-14T00:40:15;59.56;41.89;77.03;;
18377;Laerm;9315;52.624;13.544;2024-02-14T00:42:43;58.95;40.01;74.91;;
18377;Laerm;9315;52.624;13.544;2024-02-14T00:45:12;46.44;37.44;52.99;;
18377;Laerm;9315;52.624;13.544;2024-02-14T00:47:39;59.66;37.73;74.86;;
18377;Laerm;9315;52.624;13.544;2024-02-14T00:50:07;51.55;39.58;65.42;;
18377;Laerm;9315;52.624;13.544;2024-02-14T00:52:35;60.00;40.83;76.79;;
18377;Laerm;9315;52.624;13.544;2024-02-14T00:55:03;49.37;43.22;57.51;;
18377;Laerm;9315;52.624;13.544;2024-02-14T00:57:31;55.97;41.31;70.52;;
18377;Laerm;9315;52.624;13.544;2024-02-14T00:59:59;57.86;41.87;75.29;;
18377;Laerm;9315;52.624;13.544;2024-02-14T01:02:27;44.39;40.69;50.94;;
18377;Laerm;9315;52.624;13.544;2024-02-14T01:04:55;44.18;36.67;54.13;;
18377;Laerm;9315;52.624;13.544;2024-02-14T01:07:22;41.75;36.68;49.64;;
18377;Laerm;9315;52.624;13.544;2024-02-14T01:09:49;55.23;40.25;71.91;;
18377;Laerm;9315;52.624;13.544;2024-02-14T01:12:17;56.38;37.06;71.66;;
18377;Laerm;9315;52.624;13.544;2024-02-14T01:14:45;61.86;42.47;78.62;;
18377;Laerm;9315;52.624;13.544;2024-02-14T01:17:13;44.90;40.20;50.88;;
18377;Laerm;9315;52.624;13.544;2024-02-14T01:19:40;52.45;41.00;66.88;;
18377;Laerm;9315;52.624;13.544;2024-02-14T01:22:08;46.49;41.54;52.51;;
18377;Laerm;9315;52.624;13.544;2024-02-14T01:24:35;56.98;41.10;75.64;;
18377;Laerm;9315;52.624;13.544;2024-02-14T01:27:03;46.05;38.93;51.20;;
18377;Laerm;9315;52.624;13.544;2024-02-14T01:29:31;55.41;37.20;72.64;;
18377;Laerm;9315;52.624;13.544;2024-02-14T01:31:59;43.16;36.53;50.60;;
18377;Laerm;9315;52.624;13.544;2024-02-14T01:34:26;56.51;38.27;74.99;;
18377;Laerm;9315;52.624;13.544;2024-02-14T01:36:55;59.84;38.60;80.38;;
18377;Laerm;9315;52.624;13.544;2024-02-14T01:39:23;60.74;40.63;79.41;;
18377;Laerm;9315;52.624;13.544;2024-02-14T01:41:50;45.00;41.06;52.04;;
18377;Laerm;9315;52.624;13.544;2024-02-14T01:44:18;46.14;40.09;52.23;;
18377;Laerm;9315;52.624;13.544;2024-02-14T01:46:46;44.99;40.46;52.12;;
18377;Laerm;9315;52.624;13.544;2024-02-14T01:49:13;44.41;38.43;49.25;;
18377;Laerm;9315;52.624;13.544;2024-02-14T01:51:44;47.85;41.04;53.92;;
18377;Laerm;9315;52.624;13.544;2024-02-14T01:54:12;45.50;39.85;51.38;;
18377;Laerm;9315;52.624;13.544;2024-02-14T01:56:42;45.29;39.65;51.29;;
18377;Laerm;9315;52.624;13.544;2024-02-14T01:59:12;45.27;40.21;51.56;;
18377;Laerm;9315;52.624;13.544;2024-02-14T02:01:40;45.49;40.15;50.89;;
18377;Laerm;9315;52.624;13.544;2024-02-14T02:04:08;56.33;40.08;73.10;;
18377;Laerm;9315;52.624;13.544;2024-02-14T02:06:36;60.50;40.68;77.76;;
18377;Laerm;9315;52.624;13.544;2024-02-14T02:09:04;43.81;39.10;49.92;;
18377;Laerm;9315;52.624;13.544;2024-02-14T02:11:48;44.71;40.01;50.60;;
18377;Laerm;9315;52.624;13.544;2024-02-14T02:14:16;57.25;42.39;75.12;;
18377;Laerm;9315;52.624;13.544;2024-02-14T02:16:45;64.56;41.37;79.95;;
18377;Laerm;9315;52.624;13.544;2024-02-14T02:19:13;45.12;39.99;50.67;;
18377;Laerm;9315;52.624;13.544;2024-02-14T02:21:43;59.39;41.21;75.41;;
18377;Laerm;9315;52.624;13.544;2024-02-14T02:24:14;61.04;43.19;74.73;;
18377;Laerm;9315;52.624;13.544;2024-02-14T02:26:41;46.37;40.79;55.63;;
18377;Laerm;9315;52.624;13.544;2024-02-14T02:29:09;57.77;41.76;73.23;;
18377;Laerm;9315;52.624;13.544;2024-02-14T02:31:36;59.54;44.33;75.78;;
18377;Laerm;9315;52.624;13.544;2024-02-14T02:34:05;59.28;41.33;74.51;;
18377;Laerm;9315;52.624;13.544;2024-02-14T02:36:33;55.16;41.17;71.04;;
18377;Laerm;9315;52.624;13.544;2024-02-14T02:39:00;44.51;38.58;56.50;;
18377;Laerm;9315;52.624;13.544;2024-02-14T02:41:28;57.62;39.17;71.19;;
18377;Laerm;9315;52.624;13.544;2024-02-14T02:43:55;60.05;45.10;72.63;;
18377;Laerm;9315;52.624;13.544;2024-02-14T02:46:23;58.00;43.50;76.64;;
18377;Laerm;9315;52.624;13.544;2024-02-14T02:48:52;55.52;41.96;72.02;;
18377;Laerm;9315;52.624;13.544;2024-02-14T02:51:24;56.68;40.92;72.24;;
18377;Laerm;9315;52.624;13.544;2024-02-14T02:53:54;61.22;43.49;76.91;;
18377;Laerm;9315;52.624;13.544;2024-02-14T02:56:21;60.14;43.00;78.40;;
18377;Laerm;9315;52.624;13.544;2024-02-14T02:58:49;54.58;43.09;70.03;;
18377;Laerm;9315;52.624;13.544;2024-02-14T03:01:17;56.76;43.52;73.45;;
18377;Laerm;9315;52.624;13.544;2024-02-14T03:03:44;62.05;43.46;76.77;;
18377;Laerm;9315;52.624;13.544;2024-02-14T03:06:11;57.40;45.51;75.34;;
18377;Laerm;9315;52.624;13.544;2024-02-14T03:08:39;60.84;44.12;75.95;;
18377;Laerm;9315;52.624;13.544;2024-02-14T03:11:08;63.56;46.56;80.60;;
18377;Laerm;9315;52.624;13.544;2024-02-14T03:13:36;55.66;45.59;71.02;;
18377;Laerm;9315;52.624;13.544;2024-02-14T03:16:06;62.84;44.86;73.93;;
18377;Laerm;9315;52.624;13.544;2024-02-14T03:18:34;62.22;45.11;76.27;;
18377;Laerm;9315;52.624;13.544;2024-02-14T03:21:02;66.58;43.94;80.20;;
18377;Laerm;9315;52.624;13.544;2024-02-14T03:23:29;61.00;46.26;74.48;;
18377;Laerm;9315;52.624;13.544;2024-02-14T03:25:57;63.13;46.66;76.77;;
18377;Laerm;9315;52.624;13.544;2024-02-14T03:28:24;65.24;45.41;78.60;;
18377;Laerm;9315;52.624;13.544;2024-02-14T03:30:52;61.59;46.12;72.88;;
18377;Laerm;9315;52.624;13.544;2024-02-14T03:33:19;62.37;45.51;80.32;;
18377;Laerm;9315;52.624;13.544;2024-02-14T03:35:47;64.73;45.48;77.22;;
18377;Laerm;9315;52.624;13.544;2024-02-14T03:38:27;63.37;45.65;74.99;;
18377;Laerm;9315;52.624;13.544;2024-02-14T03:40:55;63.75;48.47;75.75;;
18377;Laerm;9315;52.624;13.544;2024-02-14T03:43:22;65.76;46.64;80.14;;
18377;Laerm;9315;52.624;13.544;2024-02-14T03:45:51;60.23;44.58;74.67;;
18377;Laerm;9315;52.624;13.544;2024-02-14T03:48:19;63.50;46.79;74.03;;
18377;Laerm;9315;52.624;13.544;2024-02-14T03:50:46;63.44;45.77;73.29;;
18377;Laerm;9315;52.624;13.544;2024-02-14T03:53:14;64.72;47.64;77.21;;
18377;Laerm;9315;52.624;13.544;2024-02-14T03:55:42;66.52;46.10;77.42;;
18377;Laerm;9315;52.624;13.544;2024-02-14T03:58:09;62.77;47.12;73.85;;
18377;Laerm;9315;52.624;13.544;2024-02-14T04:00:37;65.60;46.72;75.85;;
18377;Laerm;9315;52.624;13.544;2024-02-14T04:03:04;66.92;48.61;75.92;;
18377;Laerm;9315;52.624;13.544;2024-02-14T04:05:32;65.85;49.40;76.74;;
18377;Laerm;9315;52.624;13.544;2024-02-14T04:07:59;66.21;48.80;77.78;;
18377;Laerm;9315;52.624;13.544;2024-02-14T04:10:27;63.49;49.83;76.02;;
18377;Laerm;9315;52.624;13.544;2024-02-14T04:12:54;69.00;49.77;85.63;;
18377;Laerm;9315;52.624;13.544;2024-02-14T04:15:22;65.27;48.79;74.88;;
18377;Laerm;9315;52.624;13.544;2024-02-14T04:17:49;68.38;51.87;75.61;;
18377;Laerm;9315;52.624;13.544;2024-02-14T04:20:17;66.73;50.09;74.60;;
18377;Laerm;9315;52.624;13.544;2024-02-14T04:22:45;68.28;50.07;76.94;;
18377;Laerm;9315;52.624;13.544;2024-02-14T04:25:13;67.71;51.18;78.02;;
18377;Laerm;9315;52.624;13.544;2024-02-14T04:27:41;67.61;50.97;76.50;;
18377;Laerm;9315;52.624;13.544;2024-02-14T04:30:09;65.74;49.77;75.80;;
18377;Laerm;9315;52.624;13.544;2024-02-14T04:32:37;67.33;50.06;75.34;;
18377;Laerm;9315;52.624;13.544;2024-02-14T04:35:05;65.93;51.21;75.12;;
18377;Laerm;9315;52.624;13.544;2024-02-14T04:37:32;68.51;52.58;75.14;;
18377;Laerm;9315;52.624;13.544;2024-02-14T04:40:00;68.61;52.10;78.54;;
18377;Laerm;9315;52.624;13.544;2024-02-14T04:42:30;68.65;53.27;77.32;;
18377;Laerm;9315;52.624;13.544;2024-02-14T04:44:57;66.70;52.98;74.80;;
18377;Laerm;9315;52.624;13.544;2024-02-14T04:47:25;66.57;51.02;75.94;;
18377;Laerm;9315;52.624;13.544;2024-02-14T04:49:54;65.85;51.35;77.12;;
18377;Laerm;9315;52.624;13.544;2024-02-14T04:52:21;66.55;49.91;76.32;;
18377;Laerm;9315;52.624;13.544;2024-02-14T04:54:49;66.66;51.24;77.40;;
18377;Laerm;9315;52.624;13.544;2024-02-14T04:57:16;69.11;50.63;79.92;;
18377;Laerm;9315;52.624;13.544;2024-02-14T04:59:46;68.30;50.46;80.56;;
18377;Laerm;9315;52.624;13.544;2024-02-14T05:02:14;68.34;52.88;77.92;;
18377;Laerm;9315;52.624;13.544;2024-02-14T05:04:42;68.04;51.47;76.20;;
18377;Laerm;9315;52.624;13.544;2024-02-14T05:07:11;71.23;54.09;80.68;;
18377;Laerm;9315;52.624;13.544;2024-02-14T05:09:39;69.29;50.18;76.82;;
18377;Laerm;9315;52.624;13.544;2024-02-14T05:12:06;67.46;49.80;78.65;;
18377;Laerm;9315;52.624;13.544;2024-02-14T05:14:38;69.78;52.19;78.16;;
18377;Laerm;9315;52.624;13.544;2024-02-14T05:17:08;68.93;52.49;77.49;;
18377;Laerm;9315;52.624;13.544;2024-02-14T05:19:35;70.45;55.21;78.43;;
18377;Laerm;9315;52.624;13.544;2024-02-14T05:22:03;71.08;54.97;79.54;;
18377;Laerm;9315;52.624;13.544;2024-02-14T05:24:31;69.66;50.84;78.12;;
18377;Laerm;9315;52.624;13.544;2024-02-14T05:27:00;70.56;52.76;80.27;;
18377;Laerm;9315;52.624;13.544;2024-02-14T05:29:28;70.18;53.42;76.77;;
18377;Laerm;9315;52.624;13.544;2024-02-14T05:31:57;70.47;53.81;78.33;;
18377;Laerm;9315;52.624;13.544;2024-02-14T05:34:24;69.19;51.61;83.04;;
18377;Laerm;9315;52.624;13.544;2024-02-14T05:36:52;70.41;51.92;77.76;;
18377;Laerm;9315;52.624;13.544;2024-02-14T05:39:19;68.86;52.15;78.61;;
18377;Laerm;9315;52.624;13.544;2024-02-14T05:41:47;71.14;54.45;79.79;;
18377;Laerm;9315;52.624;13.544;2024-02-14T05:44:16;70.98;52.06;79.17;;
18377;Laerm;9315;52.624;13.544;2024-02-14T05:46:43;70.07;52.37;77.64;;
18377;Laerm;9315;52.624;13.544;2024-02-14T05:49:12;71.44;55.76;79.07;;
18377;Laerm;9315;52.624;13.544;2024-02-14T05:51:40;70.32;50.80;79.55;;
18377;Laerm;9315;52.624;13.544;2024-02-14T05:54:08;72.12;52.95;80.66;;
18377;Laerm;9315;52.624;13.544;2024-02-14T05:56:35;69.67;51.82;81.05;;
18377;Laerm;9315;52.624;13.544;2024-02-14T05:59:03;69.56;51.93;77.50;;
18377;Laerm;9315;52.624;13.544;2024-02-14T06:01:31;69.77;52.50;77.58;;
18377;Laerm;9315;52.624;13.544;2024-02-14T06:03:59;70.74;56.23;77.55;;
18377;Laerm;9315;52.624;13.544;2024-02-14T06:06:26;70.23;52.29;77.40;;
18377;Laerm;9315;52.624;13.544;2024-02-14T06:08:54;69.29;51.80;80.30;;
18377;Laerm;9315;52.624;13.544;2024-02-14T06:11:22;70.79;57.44;77.96;;
18377;Laerm;9315;52.624;13.544;2024-02-14T06:13:50;70.92;53.94;76.28;;
18377;Laerm;9315;52.624;13.544;2024-02-14T06:16:17;70.01;52.71;77.36;;
18377;Laerm;9315;52.624;13.544;2024-02-14T06:18:45;69.31;53.56;75.23;;
18377;Laerm;9315;52.624;13.544;2024-02-14T06:21:14;70.28;53.07;78.04;;
18377;Laerm;9315;52.624;13.544;2024-02-14T06:23:41;71.57;54.61;81.81;;
18377;Laerm;9315;52.624;13.544;2024-02-14T06:26:09;70.29;53.76;78.83;;
18377;Laerm;9315;52.624;13.544;2024-02-14T06:28:36;68.84;52.95;79.41;;
18377;Laerm;9315;52.624;13.544;2024-02-14T06:31:04;69.60;53.56;78.39;;
18377;Laerm;9315;52.624;13.544;2024-02-14T06:33:31;69.58;52.67;79.88;;
18377;Laerm;9315;52.624;13.544;2024-02-14T06:35:59;71.71;52.87;79.62;;
18377;Laerm;9315;52.624;13.544;2024-02-14T06:38:28;70.73;56.15;79.18;;
18377;Laerm;9315;52.624;13.544;2024-02-14T06:40:55;69.29;53.99;77.09;;
18377;Laerm;9315;52.624;13.544;2024-02-14T06:43:23;70.44;54.94;77.54;;
18377;Laerm;9315;52.624;13.544;2024-02-14T06:45:50;71.68;52.56;80.15;;
18377;Laerm;9315;52.624;13.544;2024-02-14T06:48:17;72.33;52.25;86.55;;
18377;Laerm;9315;52.624;13.544;2024-02-14T06:50:52;71.19;52.52;81.00;;
18377;Laerm;9315;52.624;13.544;2024-02-14T06:53:20;69.80;52.55;77.22;;
18377;Laerm;9315;52.624;13.544;2024-02-14T06:55:47;71.89;54.26;81.83;;
18377;Laerm;9315;52.624;13.544;2024-02-14T06:58:15;70.53;55.11;82.74;;
18377;Laerm;9315;52.624;13.544;2024-02-14T07:00:42;71.67;55.32;80.44;;
18377;Laerm;9315;52.624;13.544;2024-02-14T07:03:11;71.52;58.23;84.60;;
18377;Laerm;9315;52.624;13.544;2024-02-14T07:05:39;71.23;52.52;85.52;;
18377;Laerm;9315;52.624;13.544;2024-02-14T07:08:07;70.54;51.65;81.02;;
18377;Laerm;9315;52.624;13.544;2024-02-14T07:10:35;70.38;52.30;77.44;;
18377;Laerm;9315;52.624;13.544;2024-02-14T07:13:10;69.44;54.52;80.72;;
18377;Laerm;9315;52.624;13.544;2024-02-14T07:15:37;71.30;55.64;79.83;;
18377;Laerm;9315;52.624;13.544;2024-02-14T07:18:05;71.15;52.76;78.52;;
18377;Laerm;9315;52.624;13.544;2024-02-14T07:20:35;70.75;56.03;79.20;;
18377;Laerm;9315;52.624;13.544;2024-02-14T07:23:04;68.92;51.36;76.31;;
18377;Laerm;9315;52.624;13.544;2024-02-14T07:25:32;69.97;50.99;76.40;;
18377;Laerm;9315;52.624;13.544;2024-02-14T07:27:59;70.73;54.69;84.98;;
18377;Laerm;9315;52.624;13.544;2024-02-14T07:30:27;69.06;51.81;76.44;;
18377;Laerm;9315;52.624;13.544;2024-02-14T07:32:54;70.54;51.44;79.50;;
18377;Laerm;9315;52.624;13.544;2024-02-14T07:35:22;69.45;52.63;76.89;;
18377;Laerm;9315;52.624;13.544;2024-02-14T07:37:49;70.87;52.76;78.22;;
18377;Laerm;9315;52.624;13.544;2024-02-14T07:40:17;71.11;51.52;78.91;;
18377;Laerm;9315;52.624;13.544;2024-02-14T07:42:45;69.60;50.87;77.64;;
18377;Laerm;9315;52.624;13.544;2024-02-14T07:45:13;70.67;53.50;79.01;;
18377;Laerm;9315;52.624;13.544;2024-02-14T07:47:41;71.57;55.66;79.48;;
18377;Laerm;9315;52.624;13.544;2024-02-14T07:50:09;70.35;56.49;76.89;;
18377;Laerm;9315;52.624;13.544;2024-02-14T07:52:36;69.41;53.40;77.88;;
18377;Laerm;9315;52.624;13.544;2024-02-14T07:55:08;70.38;51.67;80.89;;
18377;Laerm;9315;52.624;13.544;2024-02-14T07:57:42;71.72;51.70;86.17;;
18377;Laerm;9315;52.624;13.544;2024-02-14T08:00:11;71.27;52.32;79.77;;
18377;Laerm;9315;52.624;13.544;2024-02-14T08:02:39;68.51;49.59;77.87;;
18377;Laerm;9315;52.624;13.544;2024-02-14T08:05:07;68.84;50.10;81.99;;
18377;Laerm;9315;52.624;13.544;2024-02-14T08:07:36;70.04;51.65;76.77;;
18377;Laerm;9315;52.624;13.544;2024-02-14T08:10:04;70.78;49.16;79.95;;
18377;Laerm;9315;52.624;13.544;2024-02-14T08:12:33;69.81;51.04;78.47;;
18377;Laerm;9315;52.624;13.544;2024-02-14T08:15:02;69.66;48.69;75.48;;
18377;Laerm;9315;52.624;13.544;2024-02-14T08:17:34;67.83;49.50;76.89;;
18377;Laerm;9315;52.624;13.544;2024-02-14T08:20:07;69.13;49.05;79.17;;
18377;Laerm;9315;52.624;13.544;2024-02-14T08:22:36;69.95;51.85;79.63;;
18377;Laerm;9315;52.624;13.544;2024-02-14T08:25:04;69.28;50.54;77.11;;
18377;Laerm;9315;52.624;13.544;2024-02-14T08:27:32;70.29;50.74;79.78;;
18377;Laerm;9315;52.624;13.544;2024-02-14T08:30:00;69.78;51.07;77.05;;
18377;Laerm;9315;52.624;13.544;2024-02-14T08:32:27;68.65;50.02;77.44;;
18377;Laerm;9315;52.624;13.544;2024-02-14T08:34:55;70.29;53.76;79.83;;
18377;Laerm;9315;52.624;13.544;2024-02-14T08:37:23;69.41;53.47;77.49;;
18377;Laerm;9315;52.624;13.544;2024-02-14T08:39:52;72.02;64.61;79.29;;
18377;Laerm;9315;52.624;13.544;2024-02-14T08:42:20;69.88;52.73;81.82;;
18377;Laerm;9315;52.624;13.544;2024-02-14T08:44:51;69.79;51.26;81.91;;
18377;Laerm;9315;52.624;13.544;2024-02-14T08:47:19;68.99;50.52;79.86;;
18377;Laerm;9315;52.624;13.544;2024-02-14T08:49:46;69.41;53.68;77.05;;
18377;Laerm;9315;52.624;13.544;2024-02-14T08:52:14;72.36;53.28;86.69;;
18377;Laerm;9315;52.624;13.544;2024-02-14T08:54:41;69.21;50.83;80.08;;
18377;Laerm;9315;52.624;13.544;2024-02-14T08:57:08;69.37;51.52;79.01;;
18377;Laerm;9315;52.624;13.544;2024-02-14T08:59:36;70.04;53.03;76.99;;
18377;Laerm;9315;52.624;13.544;2024-02-14T09:02:03;68.70;52.82;84.40;;
18377;Laerm;9315;52.624;13.544;2024-02-14T09:04:31;67.25;51.79;78.52;;
18377;Laerm;9315;52.624;13.544;2024-02-14T09:06:59;68.22;51.30;75.96;;
18377;Laerm;9315;52.624;13.544;2024-02-14T09:09:26;69.92;48.85;77.63;;
18377;Laerm;9315;52.624;13.544;2024-02-14T09:11:57;69.11;51.78;76.22;;
18377;Laerm;9315;52.624;13.544;2024-02-14T09:14:24;68.35;49.55;77.07;;
18377;Laerm;9315;52.624;13.544;2024-02-14T09:16:52;73.25;49.56;93.59;;
18377;Laerm;9315;52.624;13.544;2024-02-14T09:19:20;69.47;50.58;79.84;;
18377;Laerm;9315;52.624;13.544;2024-02-14T09:21:48;70.03;48.61;81.59;;
18377;Laerm;9315;52.624;13.544;2024-02-14T09:24:16;70.22;50.62;77.54;;
18377;Laerm;9315;52.624;13.544;2024-02-14T09:26:44;70.83;50.72;81.88;;
18377;Laerm;9315;52.624;13.544;2024-02-14T09:29:12;71.12;50.67;80.22;;
18377;Laerm;9315;52.624;13.544;2024-02-14T09:31:39;72.79;49.79;84.24;;
18377;Laerm;9315;52.624;13.544;2024-02-14T09:34:06;68.21;50.39;81.20;;
18377;Laerm;9315;52.624;13.544;2024-02-14T09:36:35;72.15;50.64;82.79;;
18377;Laerm;9315;52.624;13.544;2024-02-14T09:39:02;72.45;51.90;80.61;;
18377;Laerm;9315;52.624;13.544;2024-02-14T09:41:41;71.90;51.16;80.33;;
18377;Laerm;9315;52.624;13.544;2024-02-14T09:44:10;73.62;51.50;82.33;;
18377;Laerm;9315;52.624;13.544;2024-02-14T09:46:38;73.60;54.86;81.12;;
18377;Laerm;9315;52.624;13.544;2024-02-14T09:49:07;74.31;51.65;84.45;;
18377;Laerm;9315;52.624;13.544;2024-02-14T09:51:37;74.56;55.41;82.44;;
18377;Laerm;9315;52.624;13.544;2024-02-14T09:54:08;72.87;52.73;82.39;;
18377;Laerm;9315;52.624;13.544;2024-02-14T09:56:37;75.02;50.47;86.97;;
18377;Laerm;9315;52.624;13.544;2024-02-14T09:59:06;73.06;50.53;82.11;;
18377;Laerm;9315;52.624;13.544;2024-02-14T10:01:36;75.93;50.63;85.88;;
18377;Laerm;9315;52.624;13.544;2024-02-14T10:04:05;75.00;56.00;81.97;;
18377;Laerm;9315;52.624;13.544;2024-02-14T10:06:32;75.99;51.88;88.02;;
18377;Laerm;9315;52.624;13.544;2024-02-14T10:09:01;75.44;55.26;84.92;;
18377;Laerm;9315;52.624;13.544;2024-02-14T10:11:31;75.00;50.08;85.12;;
18377;Laerm;9315;52.624;13.544;2024-02-14T10:14:00;75.26;53.16;83.48;;
18377;Laerm;9315;52.624;13.544;2024-02-14T10:16:31;74.22;52.35;82.62;;
18377;Laerm;9315;52.624;13.544;2024-02-14T10:18:59;74.25;50.31;84.15;;
18377;Laerm;9315;52.624;13.544;2024-02-14T10:21:28;75.70;51.26;85.10;;
18377;Laerm;9315;52.624;13.544;2024-02-14T10:24:00;76.74;51.90;87.70;;
18377;Laerm;9315;52.624;13.544;2024-02-14T10:26:31;73.92;50.96;82.63;;
18377;Laerm;9315;52.624;13.544;2024-02-14T10:29:00;74.10;52.45;84.26;;
18377;Laerm;9315;52.624;13.544;2024-02-14T10:31:27;75.15;53.65;86.11;;
18377;Laerm;9315;52.624;13.544;2024-02-14T10:33:56;75.49;52.17;84.83;;
18377;Laerm;9315;52.624;13.544;2024-02-14T10:36:24;73.92;49.78;83.31;;
18377;Laerm;9315;52.624;13.544;2024-02-14T10:38:53;74.06;49.42;83.78;;
18377;Laerm;9315;52.624;13.544;2024-02-14T10:41:21;74.71;51.28;84.72;;
18377;Laerm;9315;52.624;13.544;2024-02-14T10:43:48;74.63;51.55;83.95;;
18377;Laerm;9315;52.624;13.544;2024-02-14T10:46:23;73.16;51.32;84.37;;
18377;Laerm;9315;52.624;13.544;2024-02-14T10:48:58;73.98;50.94;87.03;;
18377;Laerm;9315;52.624;13.544;2024-02-14T10:51:32;74.04;54.29;80.83;;
18377;Laerm;9315;52.624;13.544;2024-02-14T10:54:10;75.16;52.76;85.31;;
18377;Laerm;9315;52.624;13.544;2024-02-14T10:56:51;75.39;51.50;85.07;;
18377;Laerm;9315;52.624;13.544;2024-02-14T10:59:24;74.71;50.61;83.52;;
18377;Laerm;9315;52.624;13.544;2024-02-14T11:01:53;72.37;50.69;83.65;;
18377;Laerm;9315;52.624;13.544;2024-02-14T11:04:21;73.63;51.75;83.18;;
18377;Laerm;9315;52.624;13.544;2024-02-14T11:06:53;73.99;51.38;85.24;;
18377;Laerm;9315;52.624;13.544;2024-02-14T11:09:33;74.29;49.95;83.52;;
18377;Laerm;9315;52.624;13.544;2024-02-14T11:12:10;73.08;52.56;83.48;;
18377;Laerm;9315;52.624;13.544;2024-02-14T11:14:42;71.75;53.71;82.39;;
18377;Laerm;9315;52.624;13.544;2024-02-14T11:17:15;75.03;53.77;87.29;;
18377;Laerm;9315;52.624;13.544;2024-02-14T11:19:45;71.97;49.92;81.23;;
18377;Laerm;9315;52.624;13.544;2024-02-14T11:22:21;74.75;53.08;82.92;;
18377;Laerm;9315;52.624;13.544;2024-02-14T11:24:49;73.65;51.69;82.32;;
18377;Laerm;9315;52.624;13.544;2024-02-14T11:27:19;73.05;50.18;80.33;;
18377;Laerm;9315;52.624;13.544;2024-02-14T11:30:00;74.67;55.53;83.86;;
18377;Laerm;9315;52.624;13.544;2024-02-14T11:32:28;72.83;51.31;82.25;;
18377;Laerm;9315;52.624;13.544;2024-02-14T11:34:59;86.09;52.17;108.77;;
18377;Laerm;9315;52.624;13.544;2024-02-14T11:37:30;73.46;53.63;81.69;;
18377;Laerm;9315;52.624;13.544;2024-02-14T11:39:58;74.46;54.30;82.12;;
18377;Laerm;9315;52.624;13.544;2024-02-14T11:42:26;73.05;52.04;83.02;;
18377;Laerm;9315;52.624;13.544;2024-02-14T11:44:54;74.03;52.55;83.93;;
18377;Laerm;9315;52.624;13.544;2024-02-14T11:47:25;73.76;51.63;81.57;;
18377;Laerm;9315;52.624;13.544;2024-02-14T11:49:53;74.59;53.39;83.25;;
18377;Laerm;9315;52.624;13.544;2024-02-14T11:52:21;73.34;52.38;80.76;;
18377;Laerm;9315;52.624;13.544;2024-02-14T11:54:49;71.26;51.09;80.82;;
18377;Laerm;9315;52.624;13.544;2024-02-14T11:57:18;73.19;49.49;82.71;;
18377;Laerm;9315;52.624;13.544;2024-02-14T11:59:49;75.27;53.83;82.52;;
18377;Laerm;9315;52.624;13.544;2024-02-14T12:02:20;75.10;51.01;86.63;;
18377;Laerm;9315;52.624;13.544;2024-02-14T12:04:49;74.74;51.59;82.70;;
18377;Laerm;9315;52.624;13.544;2024-02-14T12:07:18;73.07;50.64;82.35;;
18377;Laerm;9315;52.624;13.544;2024-02-14T12:09:46;74.76;51.43;82.30;;
18377;Laerm;9315;52.624;13.544;2024-02-14T12:12:15;73.84;51.48;82.10;;
18377;Laerm;9315;52.624;13.544;2024-02-14T12:14:46;73.33;51.25;82.52;;
18377;Laerm;9315;52.624;13.544;2024-02-14T12:17:17;74.75;55.95;82.47;;
18377;Laerm;9315;52.624;13.544;2024-02-14T12:19:49;74.12;51.61;86.24;;
18377;Laerm;9315;52.624;13.544;2024-02-14T12:22:18;73.07;53.26;81.36;;
18377;Laerm;9315;52.624;13.544;2024-02-14T12:24:48;75.41;49.98;83.24;;
18377;Laerm;9315;52.624;13.544;2024-02-14T12:27:19;74.73;52.88;85.83;;
18377;Laerm;9315;52.624;13.544;2024-02-14T12:29:47;74.09;52.84;82.03;;
18377;Laerm;9315;52.624;13.544;2024-02-14T12:32:17;74.07;51.93;87.23;;
18377;Laerm;9315;52.624;13.544;2024-02-14T12:34:45;73.98;53.78;84.78;;
18377;Laerm;9315;52.624;13.544;2024-02-14T12:37:13;73.77;55.11;82.60;;
18377;Laerm;9315;52.624;13.544;2024-02-14T12:39:40;73.98;51.74;83.78;;
18377;Laerm;9315;52.624;13.544;2024-02-14T12:42:08;74.86;51.61;83.17;;
18377;Laerm;9315;52.624;13.544;2024-02-14T12:44:35;73.68;54.56;82.31;;
18377;Laerm;9315;52.624;13.544;2024-02-14T12:47:03;74.53;55.53;84.96;;
18377;Laerm;9315;52.624;13.544;2024-02-14T12:49:31;73.40;56.76;81.13;;
18377;Laerm;9315;52.624;13.544;2024-02-14T12:51:59;75.41;56.11;85.03;;
18377;Laerm;9315;52.624;13.544;2024-02-14T12:54:26;73.96;52.63;85.47;;
18377;Laerm;9315;52.624;13.544;2024-02-14T12:56:54;74.44;53.92;84.00;;
18377;Laerm;9315;52.624;13.544;2024-02-14T12:59:21;73.35;52.77;81.63;;
18377;Laerm;9315;52.624;13.544;2024-02-14T13:01:49;74.45;50.75;84.96;;
18377;Laerm;9315;52.624;13.544;2024-02-14T13:04:17;73.81;53.12;86.52;;
18377;Laerm;9315;52.624;13.544;2024-02-14T13:06:44;72.09;52.12;83.39;;
18377;Laerm;9315;52.624;13.544;2024-02-14T13:09:17;73.30;54.99;83.11;;
18377;Laerm;9315;52.624;13.544;2024-02-14T13:11:45;75.51;52.36;87.37;;
18377;Laerm;9315;52.624;13.544;2024-02-14T13:14:12;73.59;51.72;83.13;;
18377;Laerm;9315;52.624;13.544;2024-02-14T13:16:40;72.53;52.29;79.91;;
18377;Laerm;9315;52.624;13.544;2024-02-14T13:19:07;73.13;51.73;81.48;;
18377;Laerm;9315;52.624;13.544;2024-02-14T13:21:35;72.72;50.10;81.60;;
18377;Laerm;9315;52.624;13.544;2024-02-14T13:24:03;72.14;54.29;80.79;;
18377;Laerm;9315;52.624;13.544;2024-02-14T13:26:31;73.01;51.13;81.58;;
18377;Laerm;9315;52.624;13.544;2024-02-14T13:28:58;72.08;52.35;78.41;;
18377;Laerm;9315;52.624;13.544;2024-02-14T13:31:26;73.27;54.01;81.21;;
18377;Laerm;9315;52.624;13.544;2024-02-14T13:33:53;74.99;55.55;83.60;;
18377;Laerm;9315;52.624;13.544;2024-02-14T13:36:21;71.52;52.14;78.17;;
18377;Laerm;9315;52.624;13.544;2024-02-14T13:38:50;73.03;51.60;82.45;;
18377;Laerm;9315;52.624;13.544;2024-02-14T13:41:20;73.34;54.12;82.06;;
18377;Laerm;9315;52.624;13.544;2024-02-14T13:43:47;73.70;58.28;81.14;;
18377;Laerm;9315;52.624;13.544;2024-02-14T13:46:15;72.84;52.87;80.79;;
18377;Laerm;9315;52.624;13.544;2024-02-14T13:48:42;72.18;53.27;79.86;;
18377;Laerm;9315;52.624;13.544;2024-02-14T13:51:10;74.20;58.05;82.64;;